sensor_id;sensor_type;location;lat;lon;timestamp;pressure;altitude;pressure_sealevel;temperature;humidity
74529;BME280;63009;52.584;5.932;2023-03-18T00:02:13;100748.19;;;11.65;83.93
74529;BME280;63009;52.584;5.932;2023-03-18T00:04:39;100749.25;;;11.63;84.26
74529;BME280;63009;52.584;5.932;2023-03-18T00:07:05;100737.06;;;11.60;84.39
74529;BME280;63009;52.584;5.932;2023-03-18T00:09:30;100752.19;;;11.58;84.89
74529;BME280;63009;52.584;5.932;2023-03-18T00:11:56;100734.44;;;11.46;84.88
74529;BME280;63009;52.584;5.932;2023-03-18T00:14:22;100747.38;;;11.50;84.94
74529;BME280;63009;52.584;5.932;2023-03-18T00:16:47;100754.47;;;11.50;85.25
74529;BME280;63009;52.584;5.932;2023-03-18T00:19:13;100727.19;;;11.35;85.33
74529;BME280;63009;52.584;5.932;2023-03-18T00:21:39;100754.88;;;11.44;85.58
74529;BME280;63009;52.584;5.932;2023-03-18T00:24:04;100732.97;;;11.27;85.58
74529;BME280;63009;52.584;5.932;2023-03-18T00:26:29;100752.50;;;11.39;86.22
74529;BME280;63009;52.584;5.932;2023-03-18T00:28:56;100744.84;;;11.35;86.28
74529;BME280;63009;52.584;5.932;2023-03-18T00:31:24;100744.09;;;11.33;86.77
74529;BME280;63009;52.584;5.932;2023-03-18T00:33:49;100740.91;;;11.27;86.64
74529;BME280;63009;52.584;5.932;2023-03-18T00:36:16;100741.84;;;11.26;87.16
74529;BME280;63009;52.584;5.932;2023-03-18T00:38:44;100754.50;;;11.21;87.55
74529;BME280;63009;52.584;5.932;2023-03-18T00:41:11;100749.41;;;11.18;87.87
74529;BME280;63009;52.584;5.932;2023-03-18T00:43:44;100755.00;;;11.14;87.83
74529;BME280;63009;52.584;5.932;2023-03-18T00:46:15;100755.09;;;11.12;88.38
74529;BME280;63009;52.584;5.932;2023-03-18T00:48:42;100748.84;;;10.99;88.28
74529;BME280;63009;52.584;5.932;2023-03-18T00:51:08;100758.41;;;11.02;88.55
74529;BME280;63009;52.584;5.932;2023-03-18T00:53:38;100752.91;;;10.90;89.00
74529;BME280;63009;52.584;5.932;2023-03-18T00:56:04;100743.38;;;10.74;89.50
74529;BME280;63009;52.584;5.932;2023-03-18T00:58:29;100758.09;;;10.78;89.76
74529;BME280;63009;52.584;5.932;2023-03-18T01:00:55;100765.63;;;10.84;90.21
74529;BME280;63009;52.584;5.932;2023-03-18T01:03:21;100774.88;;;10.77;90.30
74529;BME280;63009;52.584;5.932;2023-03-18T01:05:50;100780.09;;;10.78;90.66
74529;BME280;63009;52.584;5.932;2023-03-18T01:08:15;100765.91;;;10.65;91.20
74529;BME280;63009;52.584;5.932;2023-03-18T01:10:41;100781.56;;;10.68;90.94
74529;BME280;63009;52.584;5.932;2023-03-18T01:13:06;100785.16;;;10.67;90.96
74529;BME280;63009;52.584;5.932;2023-03-18T01:15:32;100787.31;;;10.60;91.52
74529;BME280;63009;52.584;5.932;2023-03-18T01:17:57;100790.50;;;10.51;91.77
74529;BME280;63009;52.584;5.932;2023-03-18T01:20:24;100784.38;;;10.51;91.64
74529;BME280;63009;52.584;5.932;2023-03-18T01:22:49;100788.13;;;10.47;91.84
74529;BME280;63009;52.584;5.932;2023-03-18T01:25:15;100780.66;;;10.39;92.09
74529;BME280;63009;52.584;5.932;2023-03-18T01:27:41;100773.19;;;10.31;92.36
74529;BME280;63009;52.584;5.932;2023-03-18T01:30:08;100765.69;;;10.24;92.98
74529;BME280;63009;52.584;5.932;2023-03-18T01:32:34;100784.19;;;10.24;92.58
74529;BME280;63009;52.584;5.932;2023-03-18T01:35:00;100764.56;;;10.12;93.13
74529;BME280;63009;52.584;5.932;2023-03-18T01:37:26;100791.59;;;10.17;92.95
74529;BME280;63009;52.584;5.932;2023-03-18T01:39:51;100788.28;;;10.14;93.45
74529;BME280;63009;52.584;5.932;2023-03-18T01:42:18;100787.75;;;10.07;94.02
74529;BME280;63009;52.584;5.932;2023-03-18T01:44:45;100789.56;;;10.06;93.84
74529;BME280;63009;52.584;5.932;2023-03-18T01:47:11;100790.88;;;9.99;94.56
74529;BME280;63009;52.584;5.932;2023-03-18T01:49:43;100788.38;;;9.96;94.82
74529;BME280;63009;52.584;5.932;2023-03-18T01:52:16;100779.03;;;9.91;95.19
74529;BME280;63009;52.584;5.932;2023-03-18T01:55:17;100793.66;;;9.96;95.52
74529;BME280;63009;52.584;5.932;2023-03-18T01:57:44;100779.09;;;9.89;95.49
74529;BME280;63009;52.584;5.932;2023-03-18T02:00:11;100773.91;;;9.88;95.79
74529;BME280;63009;52.584;5.932;2023-03-18T02:02:39;100771.19;;;9.89;96.16
74529;BME280;63009;52.584;5.932;2023-03-18T02:05:06;100782.59;;;9.90;96.59
74529;BME280;63009;52.584;5.932;2023-03-18T02:07:34;100787.22;;;9.86;97.13
74529;BME280;63009;52.584;5.932;2023-03-18T02:10:04;100785.84;;;9.79;97.15
74529;BME280;63009;52.584;5.932;2023-03-18T02:12:34;100783.63;;;9.87;97.15
74529;BME280;63009;52.584;5.932;2023-03-18T02:15:03;100791.53;;;9.87;97.22
74529;BME280;63009;52.584;5.932;2023-03-18T02:17:33;100793.56;;;9.82;97.16
74529;BME280;63009;52.584;5.932;2023-03-18T02:22:32;100783.97;;;9.81;97.36
74529;BME280;63009;52.584;5.932;2023-03-18T02:25:15;100790.09;;;9.81;98.02
74529;BME280;63009;52.584;5.932;2023-03-18T02:27:47;100790.25;;;9.78;97.41
74529;BME280;63009;52.584;5.932;2023-03-18T02:30:18;100786.28;;;9.71;97.34
74529;BME280;63009;52.584;5.932;2023-03-18T02:32:46;100791.47;;;9.73;97.81
74529;BME280;63009;52.584;5.932;2023-03-18T02:35:12;100783.03;;;9.66;98.09
74529;BME280;63009;52.584;5.932;2023-03-18T02:37:37;100783.78;;;9.68;97.82
74529;BME280;63009;52.584;5.932;2023-03-18T02:42:41;100787.53;;;9.64;97.81
74529;BME280;63009;52.584;5.932;2023-03-18T02:45:12;100805.25;;;9.62;98.18
74529;BME280;63009;52.584;5.932;2023-03-18T02:47:44;100797.41;;;9.61;98.54
74529;BME280;63009;52.584;5.932;2023-03-18T02:50:11;100799.28;;;9.59;99.16
74529;BME280;63009;52.584;5.932;2023-03-18T02:52:36;100791.69;;;9.52;98.47
74529;BME280;63009;52.584;5.932;2023-03-18T02:55:03;100797.66;;;9.56;99.20
74529;BME280;63009;52.584;5.932;2023-03-18T02:57:28;100801.31;;;9.53;99.39
74529;BME280;63009;52.584;5.932;2023-03-18T02:59:53;100810.84;;;9.56;98.93
74529;BME280;63009;52.584;5.932;2023-03-18T03:02:19;100814.78;;;9.49;99.44
74529;BME280;63009;52.584;5.932;2023-03-18T03:04:45;100812.91;;;9.51;99.81
74529;BME280;63009;52.584;5.932;2023-03-18T03:07:11;100814.19;;;9.44;99.40
74529;BME280;63009;52.584;5.932;2023-03-18T03:09:37;100821.16;;;9.45;99.75
74529;BME280;63009;52.584;5.932;2023-03-18T03:12:02;100820.03;;;9.49;99.65
74529;BME280;63009;52.584;5.932;2023-03-18T03:14:27;100827.19;;;9.47;100.00
74529;BME280;63009;52.584;5.932;2023-03-18T03:16:53;100827.28;;;9.45;100.00
74529;BME280;63009;52.584;5.932;2023-03-18T03:19:18;100817.66;;;9.44;100.00
74529;BME280;63009;52.584;5.932;2023-03-18T03:21:43;100829.75;;;9.48;99.97
74529;BME280;63009;52.584;5.932;2023-03-18T03:24:09;100821.91;;;9.47;100.00
74529;BME280;63009;52.584;5.932;2023-03-18T03:26:35;100814.31;;;9.41;100.00
74529;BME280;63009;52.584;5.932;2023-03-18T03:29:01;100830.00;;;9.44;100.00
74529;BME280;63009;52.584;5.932;2023-03-18T03:31:28;100820.53;;;9.40;100.00
74529;BME280;63009;52.584;5.932;2023-03-18T03:33:54;100832.78;;;9.41;100.00
74529;BME280;63009;52.584;5.932;2023-03-18T03:36:19;100821.16;;;9.45;100.00
74529;BME280;63009;52.584;5.932;2023-03-18T03:38:44;100822.00;;;9.45;100.00
74529;BME280;63009;52.584;5.932;2023-03-18T03:41:11;100822.09;;;9.44;100.00
74529;BME280;63009;52.584;5.932;2023-03-18T03:43:38;100804.41;;;9.29;100.00
74529;BME280;63009;52.584;5.932;2023-03-18T03:46:04;100835.28;;;9.44;100.00
74529;BME280;63009;52.584;5.932;2023-03-18T03:48:30;100838.91;;;9.41;100.00
74529;BME280;63009;52.584;5.932;2023-03-18T03:50:55;100833.81;;;9.38;100.00
74529;BME280;63009;52.584;5.932;2023-03-18T03:53:21;100832.09;;;9.37;100.00
74529;BME280;63009;52.584;5.932;2023-03-18T03:55:47;100829.38;;;9.39;100.00
74529;BME280;63009;52.584;5.932;2023-03-18T03:58:12;100826.22;;;9.32;100.00
74529;BME280;63009;52.584;5.932;2023-03-18T04:00:38;100827.31;;;9.28;100.00
74529;BME280;63009;52.584;5.932;2023-03-18T04:03:03;100821.78;;;9.17;100.00
74529;BME280;63009;52.584;5.932;2023-03-18T04:05:28;100832.91;;;9.22;100.00
74529;BME280;63009;52.584;5.932;2023-03-18T04:07:54;100839.97;;;9.21;100.00
74529;BME280;63009;52.584;5.932;2023-03-18T04:10:23;100837.50;;;9.18;100.00
74529;BME280;63009;52.584;5.932;2023-03-18T04:12:50;100834.19;;;9.15;100.00
74529;BME280;63009;52.584;5.932;2023-03-18T04:15:17;100847.72;;;9.25;100.00
74529;BME280;63009;52.584;5.932;2023-03-18T04:17:43;100847.03;;;9.21;100.00
74529;BME280;63009;52.584;5.932;2023-03-18T04:20:10;100846.19;;;9.20;100.00
74529;BME280;63009;52.584;5.932;2023-03-18T04:22:35;100861.94;;;9.22;100.00
74529;BME280;63009;52.584;5.932;2023-03-18T04:25:01;100852.16;;;9.24;100.00
74529;BME280;63009;52.584;5.932;2023-03-18T04:27:27;100862.91;;;9.37;100.00
74529;BME280;63009;52.584;5.932;2023-03-18T04:29:52;100863.06;;;9.34;100.00
74529;BME280;63009;52.584;5.932;2023-03-18T04:32:18;100861.53;;;9.30;100.00
74529;BME280;63009;52.584;5.932;2023-03-18T04:34:44;100850.53;;;9.21;100.00
74529;BME280;63009;52.584;5.932;2023-03-18T04:37:09;100871.22;;;9.29;100.00
74529;BME280;63009;52.584;5.932;2023-03-18T04:39:35;100866.81;;;9.30;100.00
74529;BME280;63009;52.584;5.932;2023-03-18T04:42:01;100875.25;;;9.36;100.00
74529;BME280;63009;52.584;5.932;2023-03-18T04:44:26;100879.06;;;9.31;100.00
74529;BME280;63009;52.584;5.932;2023-03-18T04:46:52;100880.00;;;9.30;100.00
74529;BME280;63009;52.584;5.932;2023-03-18T04:49:18;100867.13;;;9.23;100.00
74529;BME280;63009;52.584;5.932;2023-03-18T04:51:44;100854.88;;;9.22;100.00
74529;BME280;63009;52.584;5.932;2023-03-18T04:54:09;100873.63;;;9.34;100.00
74529;BME280;63009;52.584;5.932;2023-03-18T04:56:36;100864.22;;;9.28;100.00
74529;BME280;63009;52.584;5.932;2023-03-18T04:59:01;100864.00;;;9.33;100.00
74529;BME280;63009;52.584;5.932;2023-03-18T05:01:26;100865.72;;;9.34;100.00
74529;BME280;63009;52.584;5.932;2023-03-18T05:03:52;100852.53;;;9.34;100.00
74529;BME280;63009;52.584;5.932;2023-03-18T05:06:23;100866.31;;;9.39;100.00
74529;BME280;63009;52.584;5.932;2023-03-18T05:08:49;100864.44;;;9.41;100.00
74529;BME280;63009;52.584;5.932;2023-03-18T05:11:16;100864.28;;;9.44;99.97
74529;BME280;63009;52.584;5.932;2023-03-18T05:13:41;100863.09;;;9.49;99.16
74529;BME280;63009;52.584;5.932;2023-03-18T05:16:06;100865.16;;;9.44;99.48
74529;BME280;63009;52.584;5.932;2023-03-18T05:18:34;100845.28;;;9.37;99.03
74529;BME280;63009;52.584;5.932;2023-03-18T05:20:59;100866.00;;;9.45;98.87
74529;BME280;63009;52.584;5.932;2023-03-18T05:23:24;100861.50;;;9.47;99.17
74529;BME280;63009;52.584;5.932;2023-03-18T05:25:50;100871.03;;;9.49;98.95
74529;BME280;63009;52.584;5.932;2023-03-18T05:28:15;100855.66;;;9.40;98.78
74529;BME280;63009;52.584;5.932;2023-03-18T05:30:41;100858.22;;;9.42;98.82
74529;BME280;63009;52.584;5.932;2023-03-18T05:33:07;100869.88;;;9.38;99.12
74529;BME280;63009;52.584;5.932;2023-03-18T05:35:32;100868.59;;;9.29;99.25
74529;BME280;63009;52.584;5.932;2023-03-18T05:37:58;100881.44;;;9.35;99.07
74529;BME280;63009;52.584;5.932;2023-03-18T05:40:23;100889.09;;;9.40;99.01
74529;BME280;63009;52.584;5.932;2023-03-18T05:42:48;100884.16;;;9.34;98.98
74529;BME280;63009;52.584;5.932;2023-03-18T05:45:13;100900.16;;;9.31;99.14
74529;BME280;63009;52.584;5.932;2023-03-18T05:47:39;100903.88;;;9.27;99.40
74529;BME280;63009;52.584;5.932;2023-03-18T05:50:05;100900.47;;;9.25;99.43
74529;BME280;63009;52.584;5.932;2023-03-18T05:52:30;100886.97;;;9.13;99.61
74529;BME280;63009;52.584;5.932;2023-03-18T05:54:56;100899.94;;;9.18;100.00
74529;BME280;63009;52.584;5.932;2023-03-18T05:57:21;100884.91;;;9.03;99.98
74529;BME280;63009;52.584;5.932;2023-03-18T05:59:47;100911.25;;;9.20;100.00
74529;BME280;63009;52.584;5.932;2023-03-18T06:02:12;100919.09;;;9.21;100.00
74529;BME280;63009;52.584;5.932;2023-03-18T06:04:38;100909.47;;;9.20;100.00
74529;BME280;63009;52.584;5.932;2023-03-18T06:07:04;100915.44;;;9.24;100.00
74529;BME280;63009;52.584;5.932;2023-03-18T06:09:30;100911.78;;;9.27;100.00
74529;BME280;63009;52.584;5.932;2023-03-18T06:11:56;100916.22;;;9.43;100.00
74529;BME280;63009;52.584;5.932;2023-03-18T06:14:22;100912.00;;;9.39;100.00
74529;BME280;63009;52.584;5.932;2023-03-18T06:16:53;100922.56;;;9.39;100.00
74529;BME280;63009;52.584;5.932;2023-03-18T06:19:18;100923.31;;;9.41;100.00
74529;BME280;63009;52.584;5.932;2023-03-18T06:21:43;100907.28;;;9.29;100.00
74529;BME280;63009;52.584;5.932;2023-03-18T06:24:09;100930.47;;;9.39;100.00
74529;BME280;63009;52.584;5.932;2023-03-18T06:26:34;100920.31;;;9.32;100.00
74529;BME280;63009;52.584;5.932;2023-03-18T06:29:00;100934.03;;;9.38;100.00
74529;BME280;63009;52.584;5.932;2023-03-18T06:31:25;100937.53;;;9.39;100.00
74529;BME280;63009;52.584;5.932;2023-03-18T06:33:51;100944.06;;;9.32;100.00
74529;BME280;63009;52.584;5.932;2023-03-18T06:36:17;100956.47;;;9.30;100.00
74529;BME280;63009;52.584;5.932;2023-03-18T06:38:43;100959.72;;;9.35;100.00
74529;BME280;63009;52.584;5.932;2023-03-18T06:41:09;100963.31;;;9.34;100.00
74529;BME280;63009;52.584;5.932;2023-03-18T06:43:35;100950.28;;;9.31;100.00
74529;BME280;63009;52.584;5.932;2023-03-18T06:46:00;100965.16;;;9.32;100.00
74529;BME280;63009;52.584;5.932;2023-03-18T06:48:26;100960.91;;;9.29;100.00
74529;BME280;63009;52.584;5.932;2023-03-18T06:50:52;100961.59;;;9.33;100.00
74529;BME280;63009;52.584;5.932;2023-03-18T06:53:18;100953.84;;;9.30;100.00
74529;BME280;63009;52.584;5.932;2023-03-18T06:55:43;100969.50;;;9.33;100.00
74529;BME280;63009;52.584;5.932;2023-03-18T06:58:10;100967.56;;;9.36;100.00
74529;BME280;63009;52.584;5.932;2023-03-18T07:00:35;100967.63;;;9.35;100.00
74529;BME280;63009;52.584;5.932;2023-03-18T07:03:00;100965.25;;;9.30;100.00
74529;BME280;63009;52.584;5.932;2023-03-18T07:05:27;100978.78;;;9.40;100.00
74529;BME280;63009;52.584;5.932;2023-03-18T07:07:52;100970.97;;;9.38;100.00
74529;BME280;63009;52.584;5.932;2023-03-18T07:10:23;100975.22;;;9.41;100.00
74529;BME280;63009;52.584;5.932;2023-03-18T07:12:49;100980.88;;;9.50;100.00
74529;BME280;63009;52.584;5.932;2023-03-18T07:15:16;100980.88;;;9.50;100.00
74529;BME280;63009;52.584;5.932;2023-03-18T07:17:45;100993.63;;;9.60;100.00
74529;BME280;63009;52.584;5.932;2023-03-18T07:20:11;100999.16;;;9.71;100.00
74529;BME280;63009;52.584;5.932;2023-03-18T07:22:36;100996.59;;;9.69;100.00
74529;BME280;63009;52.584;5.932;2023-03-18T07:25:02;100991.34;;;9.69;100.00
74529;BME280;63009;52.584;5.932;2023-03-18T07:27:27;100980.25;;;9.63;100.00
74529;BME280;63009;52.584;5.932;2023-03-18T07:29:53;100985.19;;;9.69;100.00
74529;BME280;63009;52.584;5.932;2023-03-18T07:32:19;101001.25;;;9.81;100.00
74529;BME280;63009;52.584;5.932;2023-03-18T07:34:45;100980.63;;;9.72;100.00
74529;BME280;63009;52.584;5.932;2023-03-18T07:37:12;100983.19;;;9.74;100.00
74529;BME280;63009;52.584;5.932;2023-03-18T07:39:37;101006.06;;;9.91;100.00
74529;BME280;63009;52.584;5.932;2023-03-18T07:42:02;101004.19;;;9.93;100.00
74529;BME280;63009;52.584;5.932;2023-03-18T07:44:28;101013.81;;;9.94;100.00
74529;BME280;63009;52.584;5.932;2023-03-18T07:46:53;101003.34;;;9.92;100.00
74529;BME280;63009;52.584;5.932;2023-03-18T07:49:20;101019.53;;;10.02;100.00
74529;BME280;63009;52.584;5.932;2023-03-18T07:51:45;100995.88;;;10.00;100.00
74529;BME280;63009;52.584;5.932;2023-03-18T07:54:11;101014.28;;;10.18;100.00
74529;BME280;63009;52.584;5.932;2023-03-18T07:56:36;101025.00;;;10.32;100.00
74529;BME280;63009;52.584;5.932;2023-03-18T07:59:01;101018.34;;;10.40;100.00
74529;BME280;63009;52.584;5.932;2023-03-18T08:01:27;100987.25;;;10.30;100.00
74529;BME280;63009;52.584;5.932;2023-03-18T08:03:52;101012.38;;;10.53;100.00
74529;BME280;63009;52.584;5.932;2023-03-18T08:06:18;101020.94;;;10.58;100.00
74529;BME280;63009;52.584;5.932;2023-03-18T08:08:44;101013.31;;;10.67;100.00
74529;BME280;63009;52.584;5.932;2023-03-18T08:11:09;101018.25;;;10.89;100.00
74529;BME280;63009;52.584;5.932;2023-03-18T08:13:36;101026.09;;;10.91;100.00
74529;BME280;63009;52.584;5.932;2023-03-18T08:16:03;101021.66;;;10.91;100.00
74529;BME280;63009;52.584;5.932;2023-03-18T08:18:28;101015.78;;;11.02;100.00
74529;BME280;63009;52.584;5.932;2023-03-18T08:20:53;101025.56;;;11.16;100.00
74529;BME280;63009;52.584;5.932;2023-03-18T08:23:19;101032.41;;;11.34;100.00
74529;BME280;63009;52.584;5.932;2023-03-18T08:25:48;101035.53;;;11.56;99.83
74529;BME280;63009;52.584;5.932;2023-03-18T08:28:15;101031.63;;;11.92;99.23
74529;BME280;63009;52.584;5.932;2023-03-18T08:30:41;101027.75;;;12.26;96.24
74529;BME280;63009;52.584;5.932;2023-03-18T08:33:07;101030.66;;;12.36;94.51
74529;BME280;63009;52.584;5.932;2023-03-18T08:35:33;101034.44;;;12.46;93.17
74529;BME280;63009;52.584;5.932;2023-03-18T08:37:58;101038.03;;;12.59;92.57
74529;BME280;63009;52.584;5.932;2023-03-18T08:40:24;101045.38;;;12.83;92.97
74529;BME280;63009;52.584;5.932;2023-03-18T08:42:50;101048.56;;;13.15;92.50
74529;BME280;63009;52.584;5.932;2023-03-18T08:45:16;101044.44;;;13.50;89.75
74529;BME280;63009;52.584;5.932;2023-03-18T08:47:41;101037.81;;;13.83;88.53
74529;BME280;63009;52.584;5.932;2023-03-18T08:50:07;101046.81;;;14.18;86.54
74529;BME280;63009;52.584;5.932;2023-03-18T08:52:33;101043.75;;;14.37;84.54
74529;BME280;63009;52.584;5.932;2023-03-18T08:54:58;101036.69;;;14.62;84.08
74529;BME280;63009;52.584;5.932;2023-03-18T08:57:23;101044.47;;;14.89;83.76
74529;BME280;63009;52.584;5.932;2023-03-18T08:59:50;101041.81;;;15.12;83.67
74529;BME280;63009;52.584;5.932;2023-03-18T09:02:16;101039.28;;;15.35;81.66
74529;BME280;63009;52.584;5.932;2023-03-18T09:04:43;101038.56;;;15.44;78.26
74529;BME280;63009;52.584;5.932;2023-03-18T09:07:09;101049.94;;;15.70;78.80
74529;BME280;63009;52.584;5.932;2023-03-18T09:09:34;101059.50;;;15.72;76.98
74529;BME280;63009;52.584;5.932;2023-03-18T09:12:00;101053.00;;;15.88;77.05
74529;BME280;63009;52.584;5.932;2023-03-18T09:14:26;101053.88;;;15.99;77.63
74529;BME280;63009;52.584;5.932;2023-03-18T09:16:52;101056.41;;;16.01;75.25
74529;BME280;63009;52.584;5.932;2023-03-18T09:19:18;101047.53;;;15.78;75.27
74529;BME280;63009;52.584;5.932;2023-03-18T09:21:43;101059.31;;;15.98;75.74
74529;BME280;63009;52.584;5.932;2023-03-18T09:24:09;101062.25;;;16.17;76.58
74529;BME280;63009;52.584;5.932;2023-03-18T09:26:34;101063.22;;;16.39;75.71
74529;BME280;63009;52.584;5.932;2023-03-18T09:29:00;101060.44;;;16.74;75.78
74529;BME280;63009;52.584;5.932;2023-03-18T09:31:25;101060.53;;;16.95;72.85
74529;BME280;63009;52.584;5.932;2023-03-18T09:33:51;101043.56;;;16.73;73.08
74529;BME280;63009;52.584;5.932;2023-03-18T09:36:16;101066.19;;;17.01;72.70
74529;BME280;63009;52.584;5.932;2023-03-18T09:38:42;101066.00;;;17.25;71.92
74529;BME280;63009;52.584;5.932;2023-03-18T09:44:24;101056.31;;;17.45;71.11
74529;BME280;63009;52.584;5.932;2023-03-18T09:47:03;101078.31;;;17.80;72.57
74529;BME280;63009;52.584;5.932;2023-03-18T09:49:48;101075.59;;;18.01;69.38
74529;BME280;63009;52.584;5.932;2023-03-18T09:52:25;101062.66;;;17.76;67.44
74529;BME280;63009;52.584;5.932;2023-03-18T09:55:00;101055.94;;;17.82;68.09
74529;BME280;63009;52.584;5.932;2023-03-18T09:57:33;101048.50;;;17.85;66.89
74529;BME280;63009;52.584;5.932;2023-03-18T10:02:39;101080.91;;;17.92;66.48
74529;BME280;63009;52.584;5.932;2023-03-18T10:05:13;101085.75;;;17.77;66.79
74529;BME280;63009;52.584;5.932;2023-03-18T10:07:41;101080.72;;;17.84;67.57
74529;BME280;63009;52.584;5.932;2023-03-18T10:10:20;101085.78;;;18.07;67.12
74529;BME280;63009;52.584;5.932;2023-03-18T10:12:50;101077.09;;;18.15;65.81
74529;BME280;63009;52.584;5.932;2023-03-18T10:15:21;101079.47;;;18.08;64.98
74529;BME280;63009;52.584;5.932;2023-03-18T10:18:14;101083.63;;;18.01;64.76
74529;BME280;63009;52.584;5.932;2023-03-18T10:20:51;101093.16;;;18.15;64.90
74529;BME280;63009;52.584;5.932;2023-03-18T10:26:22;101093.31;;;17.93;63.18
74529;BME280;63009;52.584;5.932;2023-03-18T10:29:17;101093.66;;;17.67;63.19
74529;BME280;63009;52.584;5.932;2023-03-18T10:37:35;101104.94;;;18.03;65.11
74529;BME280;63009;52.584;5.932;2023-03-18T10:40:16;101100.22;;;18.16;64.82
74529;BME280;63009;52.584;5.932;2023-03-18T10:42:42;101111.59;;;18.39;63.09
74529;BME280;63009;52.584;5.932;2023-03-18T10:45:24;101101.38;;;18.23;62.14
74529;BME280;63009;52.584;5.932;2023-03-18T10:50:41;101101.66;;;18.51;63.09
74529;BME280;63009;52.584;5.932;2023-03-18T10:53:15;101104.84;;;18.65;62.41
74529;BME280;63009;52.584;5.932;2023-03-18T10:55:54;101101.50;;;18.52;60.96
74529;BME280;63009;52.584;5.932;2023-03-18T10:58:22;101088.97;;;18.74;60.66
74529;BME280;63009;52.584;5.932;2023-03-18T11:00:47;101103.25;;;18.63;60.28
74529;BME280;63009;52.584;5.932;2023-03-18T11:03:26;101091.34;;;18.46;61.40
74529;BME280;63009;52.584;5.932;2023-03-18T11:05:54;101096.56;;;18.17;61.75
74529;BME280;63009;52.584;5.932;2023-03-18T11:08:31;101094.06;;;18.56;62.73
74529;BME280;63009;52.584;5.932;2023-03-18T11:13:37;101089.59;;;18.35;61.78
74529;BME280;63009;52.584;5.932;2023-03-18T11:16:03;101077.00;;;18.17;62.32
74529;BME280;63009;52.584;5.932;2023-03-18T11:18:28;101085.94;;;18.06;61.27
74529;BME280;63009;52.584;5.932;2023-03-18T11:20:58;101082.06;;;18.20;62.15
74529;BME280;63009;52.584;5.932;2023-03-18T11:23:32;101089.28;;;18.29;61.81
74529;BME280;63009;52.584;5.932;2023-03-18T11:26:24;101079.66;;;18.47;62.44
74529;BME280;63009;52.584;5.932;2023-03-18T11:28:55;101078.22;;;18.64;60.78
74529;BME280;63009;52.584;5.932;2023-03-18T11:31:21;101087.78;;;18.66;60.65
74529;BME280;63009;52.584;5.932;2023-03-18T11:33:46;101069.72;;;18.59;60.21
74529;BME280;63009;52.584;5.932;2023-03-18T11:36:15;101078.56;;;18.90;61.93
74529;BME280;63009;52.584;5.932;2023-03-18T11:38:43;101077.06;;;19.16;59.38
74529;BME280;63009;52.584;5.932;2023-03-18T11:41:24;101086.38;;;19.41;60.22
74529;BME280;63009;52.584;5.932;2023-03-18T11:44:17;101090.03;;;19.40;56.79
74529;BME280;63009;52.584;5.932;2023-03-18T11:46:46;101071.44;;;19.29;58.29
74529;BME280;63009;52.584;5.932;2023-03-18T11:49:16;101098.50;;;19.16;57.20
74529;BME280;63009;52.584;5.932;2023-03-18T11:52:26;101086.81;;;19.37;59.71
74529;BME280;63009;52.584;5.932;2023-03-18T11:58:05;101081.28;;;19.38;59.71
74529;BME280;63009;52.584;5.932;2023-03-18T12:00:48;101081.31;;;19.28;57.91
74529;BME280;63009;52.584;5.932;2023-03-18T12:03:44;101087.34;;;19.40;58.13
74529;BME280;63009;52.584;5.932;2023-03-18T12:09:23;101078.94;;;19.54;59.55
74529;BME280;63009;52.584;5.932;2023-03-18T12:12:15;101074.97;;;19.30;58.43
74529;BME280;63009;52.584;5.932;2023-03-18T12:15:08;101074.22;;;19.27;58.10
74529;BME280;63009;52.584;5.932;2023-03-18T12:18:15;101067.06;;;19.18;57.49
74529;BME280;63009;52.584;5.932;2023-03-18T12:20:51;101078.63;;;19.38;61.81
74529;BME280;63009;52.584;5.932;2023-03-18T12:26:26;101069.03;;;19.45;59.13
74529;BME280;63009;52.584;5.932;2023-03-18T12:31:51;101079.94;;;19.63;58.92
74529;BME280;63009;52.584;5.932;2023-03-18T12:34:27;101075.25;;;19.55;56.95
74529;BME280;63009;52.584;5.932;2023-03-18T12:45:00;101068.38;;;18.84;59.01
74529;BME280;63009;52.584;5.932;2023-03-18T12:47:46;101055.41;;;18.79;59.67
74529;BME280;63009;52.584;5.932;2023-03-18T12:50:25;101058.53;;;18.84;61.54
74529;BME280;63009;52.584;5.932;2023-03-18T12:52:57;101037.75;;;18.67;61.61
74529;BME280;63009;52.584;5.932;2023-03-18T12:55:34;101055.28;;;18.81;59.95
74529;BME280;63009;52.584;5.932;2023-03-18T12:58:13;101057.25;;;18.79;60.92
74529;BME280;63009;52.584;5.932;2023-03-18T13:00:57;101049.91;;;18.81;60.63
74529;BME280;63009;52.584;5.932;2023-03-18T13:03:30;101057.91;;;18.71;59.54
74529;BME280;63009;52.584;5.932;2023-03-18T13:08:45;101054.41;;;18.71;60.41
74529;BME280;63009;52.584;5.932;2023-03-18T13:14:02;101026.78;;;18.30;58.63
74529;BME280;63009;52.584;5.932;2023-03-18T13:16:31;101048.97;;;18.21;60.93
74529;BME280;63009;52.584;5.932;2023-03-18T13:18:58;101056.66;;;18.35;61.51
74529;BME280;63009;52.584;5.932;2023-03-18T13:21:29;101051.25;;;18.25;60.70
74529;BME280;63009;52.584;5.932;2023-03-18T13:24:01;101052.91;;;18.17;61.03
74529;BME280;63009;52.584;5.932;2023-03-18T13:27:00;101055.59;;;18.17;60.71
74529;BME280;63009;52.584;5.932;2023-03-18T13:30:01;101045.66;;;17.77;61.57
74529;BME280;63009;52.584;5.932;2023-03-18T13:32:44;101057.03;;;17.79;62.55
74529;BME280;63009;52.584;5.932;2023-03-18T13:35:24;101057.94;;;17.68;63.09
74529;BME280;63009;52.584;5.932;2023-03-18T13:38:15;101061.19;;;17.72;63.63
74529;BME280;63009;52.584;5.932;2023-03-18T13:40:53;101056.97;;;17.69;63.25
74529;BME280;63009;52.584;5.932;2023-03-18T13:43:25;101059.28;;;17.74;65.14
74529;BME280;63009;52.584;5.932;2023-03-18T13:45:52;101047.13;;;17.70;62.74
74529;BME280;63009;52.584;5.932;2023-03-18T13:48:30;101043.72;;;17.68;62.23
74529;BME280;63009;52.584;5.932;2023-03-18T13:50:58;101045.38;;;17.80;64.56